Bergamot Ace — ZGAS5 — position and weather

sailwx.info

Track history (hours):
 
Tides and Currents Weather Stations Pressure Air Temp Water Temp Dewpoint Dewpoint Depression Visibility Wind Speed Wind Dir Waves Ship Positions

Bergamot Ace

Last reported at 2014-Oct-28 21:33 UTC. Time now 2014-Oct-30 12:59 UTC.
Position S 29°37' E 031°43'.

Length 186 m; draft 6.5 m.

Type: Cargo ship. MMSI: 319740000.

Date/timePositionNaut miles runAvg speedWind from/ knotsBaromVisibWave heightAir tempDewpointWater temp
2014-Oct-28 21:33S 29°37' E 031°43'1515.4
2014-Oct-28 20:33S 29°49' E 031°32'1615.6
2014-Oct-28 19:33S 29°60' E 031°19'1616.4
2014-Oct-28 18:33S 30°13' E 031°08'1615.7
2014-Oct-28 17:33S 30°26' E 030°57'26814.5
2014-Oct-27 23:07S 33°36' E 027°16'2716.8
2014-Oct-27 21:31S 33°48' E 026°47'1917.7
2014-Oct-27 20:27S 33°56' E 026°26'40915.7
2014-Oct-26 18:23S 34°14' E 018°13'1417.4
2014-Oct-26 17:33S 34°01' E 018°06'  
Track history (hours):
 
Tides and Currents Weather Stations Pressure Air Temp Water Temp Dewpoint Dewpoint Depression Visibility Wind Speed Wind Dir Waves Ship Positions

Bergamot Ace

Last reported at 2014-Oct-28 21:33 UTC. Time now 2014-Oct-30 12:59 UTC.
Position S 29°37' E 031°43'.

Length 186 m; draft 6.5 m.

Type: Cargo ship. MMSI: 319740000.

Date/timePositionNaut miles runAvg speedWind from/ knotsBaromVisibWave heightAir tempDewpointWater temp
2014-Oct-28 21:33S 29°37' E 031°43'1515.4
2014-Oct-28 20:33S 29°49' E 031°32'1615.6
2014-Oct-28 19:33S 29°60' E 031°19'1616.4
2014-Oct-28 18:33S 30°13' E 031°08'1615.7
2014-Oct-28 17:33S 30°26' E 030°57'26814.5
2014-Oct-27 23:07S 33°36' E 027°16'2716.8
2014-Oct-27 21:31S 33°48' E 026°47'1917.7
2014-Oct-27 20:27S 33°56' E 026°26'40915.7
2014-Oct-26 18:23S 34°14' E 018°13'1417.4
2014-Oct-26 17:33S 34°01' E 018°06'  

Dump ship's entire track history